createdAt,value
2022-10-26T00:01:15.002Z,10.80
2022-10-26T00:03:44.738Z,10.80
2022-10-26T00:06:15.805Z,10.80
2022-10-26T00:08:43.491Z,10.90
2022-10-26T00:11:12.323Z,10.90
2022-10-26T00:13:41.063Z,10.90
2022-10-26T00:16:15.830Z,10.80
2022-10-26T00:18:43.762Z,10.70
2022-10-26T00:21:11.995Z,10.70
2022-10-26T00:23:39.448Z,10.80
2022-10-26T00:26:07.634Z,10.80
2022-10-26T00:28:34.783Z,10.80
2022-10-26T00:31:13.922Z,10.90
2022-10-26T00:33:41.166Z,10.80
2022-10-26T00:36:15.947Z,10.80
2022-10-26T00:38:46.136Z,10.90
2022-10-26T00:41:25.614Z,10.80
2022-10-26T00:43:53.886Z,10.90
2022-10-26T00:46:37.446Z,11.00
2022-10-26T00:49:15.617Z,11.00
2022-10-26T00:51:51.821Z,11.00
2022-10-26T00:54:20.623Z,11.00
2022-10-26T00:56:50.761Z,11.10
2022-10-26T00:59:18.871Z,11.20
2022-10-26T01:01:47.895Z,11.20
2022-10-26T01:04:15.816Z,11.20
2022-10-26T01:06:43.786Z,11.30
2022-10-26T01:09:11.442Z,11.30
2022-10-26T01:11:38.439Z,11.30
2022-10-26T01:14:09.577Z,11.20
2022-10-26T01:16:55.185Z,11.20
2022-10-26T01:19:45.794Z,11.30
2022-10-26T01:22:36.443Z,11.40
2022-10-26T01:25:51.585Z,11.40
2022-10-26T01:28:32.203Z,11.30
2022-10-26T01:31:04.815Z,11.30
2022-10-26T01:33:42.134Z,11.40
2022-10-26T01:36:55.750Z,11.40
2022-10-26T01:39:38.610Z,11.40
2022-10-26T01:42:08.517Z,11.50
2022-10-26T01:44:43.046Z,11.50
2022-10-26T01:47:14.537Z,11.60
2022-10-26T01:49:54.166Z,11.60
2022-10-26T01:52:22.082Z,11.70
2022-10-26T01:54:49.113Z,11.70
2022-10-26T01:57:20.674Z,11.70
2022-10-26T02:00:10.679Z,11.70
2022-10-26T02:02:55.767Z,11.70
2022-10-26T02:05:59.220Z,11.70
2022-10-26T02:09:01.326Z,11.80
2022-10-26T02:11:43.475Z,11.80
2022-10-26T02:14:29.956Z,11.80
2022-10-26T02:17:10.061Z,11.80
2022-10-26T02:19:42.997Z,11.80
2022-10-26T02:22:23.754Z,11.90
2022-10-26T02:24:53.189Z,11.80
2022-10-26T02:27:28.157Z,11.80
2022-10-26T02:29:57.464Z,11.90
2022-10-26T02:32:28.554Z,11.90
2022-10-26T02:34:58.295Z,11.90
2022-10-26T02:37:27.626Z,11.90
2022-10-26T02:39:57.069Z,11.90
2022-10-26T02:42:27.053Z,11.80
2022-10-26T02:45:05.455Z,11.90
2022-10-26T02:47:33.907Z,11.90
2022-10-26T02:50:03.936Z,11.90
2022-10-26T02:52:58.238Z,11.90
2022-10-26T02:55:35.701Z,11.90
2022-10-26T02:58:08.800Z,11.90
2022-10-26T03:00:35.943Z,11.90
2022-10-26T03:03:04.758Z,11.90
2022-10-26T03:05:33.396Z,11.90
2022-10-26T03:08:01.403Z,11.90
2022-10-26T03:10:28.499Z,11.90
2022-10-26T03:12:55.780Z,11.90
2022-10-26T03:15:22.793Z,11.90
2022-10-26T03:17:50.020Z,11.90
2022-10-26T03:20:17.667Z,11.90
2022-10-26T03:22:47.477Z,11.90
2022-10-26T03:25:18.332Z,11.90
2022-10-26T03:27:45.479Z,11.90
2022-10-26T03:30:12.618Z,11.90
2022-10-26T03:32:39.658Z,11.90
2022-10-26T03:35:07.089Z,12.00
2022-10-26T03:37:34.104Z,12.00
2022-10-26T03:40:01.298Z,12.20
2022-10-26T03:42:28.356Z,12.20
2022-10-26T03:44:55.344Z,12.20
2022-10-26T03:47:22.326Z,12.20
2022-10-26T03:49:49.392Z,12.20
2022-10-26T03:52:16.376Z,12.20
2022-10-26T03:54:43.360Z,12.20
2022-10-26T03:57:10.424Z,12.20
2022-10-26T03:59:37.510Z,12.20
2022-10-26T04:02:04.499Z,12.20
2022-10-26T04:04:31.605Z,12.20
2022-10-26T04:06:58.670Z,12.30
2022-10-26T04:09:25.806Z,12.40
2022-10-26T04:11:52.879Z,12.40
2022-10-26T04:14:19.901Z,12.30
2022-10-26T04:16:46.946Z,12.30
2022-10-26T04:19:14.099Z,12.20
2022-10-26T04:21:42.434Z,12.30
2022-10-26T04:24:11.390Z,12.30
2022-10-26T04:26:39.427Z,12.20
2022-10-26T04:29:06.856Z,12.20
2022-10-26T04:31:34.275Z,12.20
2022-10-26T04:34:01.466Z,12.10
2022-10-26T04:36:28.517Z,12.10
2022-10-26T04:38:55.491Z,12.00
2022-10-26T04:41:24.571Z,11.80
2022-10-26T04:43:51.573Z,11.60
2022-10-26T04:46:18.610Z,11.60
2022-10-26T04:48:45.678Z,11.50
2022-10-26T04:51:12.670Z,11.40
2022-10-26T04:53:39.657Z,11.40
2022-10-26T04:56:07.098Z,11.40
2022-10-26T04:58:34.130Z,11.30
2022-10-26T05:01:03.275Z,11.40
2022-10-26T05:03:30.521Z,11.40
2022-10-26T05:06:00.411Z,11.40
2022-10-26T05:08:30.197Z,11.40
2022-10-26T05:10:57.310Z,11.40
2022-10-26T05:13:24.532Z,11.40
2022-10-26T05:15:54.453Z,11.40
2022-10-26T05:18:21.870Z,11.30
2022-10-26T05:20:50.384Z,11.40
2022-10-26T05:23:18.765Z,11.30
2022-10-26T05:25:46.558Z,11.30
2022-10-26T05:28:15.314Z,11.40
2022-10-26T05:30:46.010Z,11.40
2022-10-26T05:33:14.526Z,11.40
2022-10-26T05:35:41.706Z,11.50
2022-10-26T05:38:17.240Z,11.40
2022-10-26T05:40:52.726Z,11.40
2022-10-26T05:43:22.188Z,11.30
2022-10-26T05:45:51.395Z,11.30
2022-10-26T05:48:18.463Z,11.30
2022-10-26T05:50:46.033Z,11.30
2022-10-26T05:53:13.299Z,11.40
2022-10-26T05:55:40.829Z,11.40
2022-10-26T05:58:15.079Z,11.40
2022-10-26T06:00:51.009Z,11.40
2022-10-26T06:03:43.048Z,11.40
2022-10-26T06:06:12.242Z,11.40
2022-10-26T06:08:39.614Z,11.40
2022-10-26T06:11:07.944Z,11.50
2022-10-26T06:13:35.588Z,11.50
2022-10-26T06:16:32.445Z,11.50
2022-10-26T06:19:20.975Z,11.60
2022-10-26T06:22:15.170Z,11.70
2022-10-26T06:25:13.797Z,11.80
2022-10-26T06:28:13.164Z,11.80
2022-10-26T06:30:41.716Z,11.90
2022-10-26T06:33:24.979Z,11.90
2022-10-26T06:36:24.362Z,12.00
2022-10-26T06:39:03.879Z,12.10
2022-10-26T06:41:34.364Z,12.20
2022-10-26T06:44:02.774Z,12.20
2022-10-26T06:46:51.839Z,12.20
2022-10-26T06:49:38.025Z,12.30
2022-10-26T06:52:10.815Z,12.30
2022-10-26T06:54:55.685Z,12.30
2022-10-26T06:57:26.173Z,12.30
2022-10-26T06:59:58.001Z,12.30
2022-10-26T07:02:27.308Z,12.30
2022-10-26T07:04:54.871Z,12.40
2022-10-26T07:07:26.112Z,12.40
2022-10-26T07:09:55.126Z,12.50
2022-10-26T07:12:22.174Z,12.70
2022-10-26T07:14:49.270Z,12.90
2022-10-26T07:17:17.201Z,13.00
2022-10-26T07:19:44.950Z,13.10
2022-10-26T07:22:12.237Z,13.20
2022-10-26T07:24:40.927Z,13.20
2022-10-26T07:27:08.029Z,13.30
2022-10-26T07:29:36.583Z,13.40
2022-10-26T07:32:03.746Z,13.50
2022-10-26T07:34:30.729Z,13.60
2022-10-26T07:37:00.500Z,13.80
2022-10-26T07:39:27.870Z,14.00
2022-10-26T07:41:54.856Z,14.20
2022-10-26T07:44:21.958Z,14.30
2022-10-26T07:46:48.946Z,14.40
2022-10-26T07:49:19.202Z,14.50
2022-10-26T07:51:46.788Z,14.60
2022-10-26T07:54:13.845Z,14.60
2022-10-26T07:56:40.859Z,14.70
2022-10-26T07:59:07.875Z,14.70
2022-10-26T08:01:35.852Z,14.80
2022-10-26T08:04:03.097Z,14.90
2022-10-26T08:06:30.087Z,14.80
2022-10-26T08:08:57.129Z,14.80
2022-10-26T08:11:24.116Z,14.70
2022-10-26T08:13:55.484Z,14.70
2022-10-26T08:16:23.655Z,14.60
2022-10-26T08:18:51.919Z,14.60
2022-10-26T08:21:21.933Z,14.60
2022-10-26T08:23:57.407Z,14.70
2022-10-26T08:26:24.475Z,14.70
2022-10-26T08:28:51.514Z,14.80
2022-10-26T08:31:18.547Z,14.90
2022-10-26T08:33:45.615Z,15.00
2022-10-26T08:36:13.822Z,15.10
2022-10-26T08:38:40.841Z,15.20
2022-10-26T08:41:09.540Z,15.10
2022-10-26T08:44:26.392Z,15.20
2022-10-26T08:47:04.268Z,15.20
2022-10-26T08:49:50.901Z,15.30
2022-10-26T08:52:24.389Z,15.40
2022-10-26T08:54:55.095Z,15.60
2022-10-26T08:57:35.420Z,15.60
2022-10-26T09:00:07.380Z,15.60
2022-10-26T09:02:34.424Z,15.60
2022-10-26T09:05:01.501Z,15.70
2022-10-26T09:08:17.879Z,15.90
2022-10-26T09:11:13.642Z,16.10
2022-10-26T09:13:59.020Z,16.30
2022-10-26T09:16:58.266Z,16.40
2022-10-26T09:19:37.019Z,16.50
2022-10-26T09:22:20.912Z,16.60
2022-10-26T09:24:56.678Z,16.70
2022-10-26T09:27:36.179Z,16.80
2022-10-26T09:30:19.655Z,16.80
2022-10-26T09:32:55.493Z,16.80
2022-10-26T09:38:32.740Z,16.70
2022-10-26T09:41:08.777Z,16.80
2022-10-26T09:43:50.286Z,16.80
2022-10-26T09:47:03.225Z,16.90
2022-10-26T09:50:00.983Z,17.00
2022-10-26T09:52:28.067Z,17.10
2022-10-26T09:54:55.062Z,17.20
2022-10-26T09:57:22.543Z,17.40
2022-10-26T09:59:51.791Z,17.40
2022-10-26T10:02:38.653Z,17.40
2022-10-26T10:05:51.584Z,17.50
2022-10-26T10:08:28.428Z,17.60
2022-10-26T10:10:59.735Z,17.60
2022-10-26T10:13:36.710Z,17.60
2022-10-26T10:16:24.955Z,17.70
2022-10-26T10:18:58.151Z,17.70
2022-10-26T10:21:45.528Z,17.70
2022-10-26T10:24:27.935Z,17.80
2022-10-26T10:26:59.342Z,17.90
2022-10-26T10:29:34.836Z,17.90
2022-10-26T10:32:04.397Z,17.90
2022-10-26T10:34:32.906Z,17.80
2022-10-26T10:37:01.774Z,17.90
2022-10-26T10:39:37.126Z,17.90
2022-10-26T10:42:28.250Z,17.90
2022-10-26T10:44:57.577Z,18.00
2022-10-26T10:47:29.470Z,17.90
2022-10-26T10:50:20.157Z,17.80
2022-10-26T10:52:47.859Z,17.80
2022-10-26T10:55:15.007Z,17.90
2022-10-26T10:58:32.151Z,17.70
2022-10-26T11:00:59.210Z,17.70
2022-10-26T11:03:50.278Z,17.70
2022-10-26T11:06:24.153Z,17.70
2022-10-26T11:08:51.161Z,17.80
2022-10-26T11:11:34.010Z,18.00
2022-10-26T11:14:16.090Z,18.20
2022-10-26T11:17:18.008Z,18.30
2022-10-26T11:20:00.550Z,18.50
2022-10-26T11:22:35.342Z,18.70
2022-10-26T11:25:19.415Z,18.90
2022-10-26T11:27:53.395Z,19.10
2022-10-26T11:30:25.687Z,19.40
2022-10-26T11:33:23.803Z,20.00
2022-10-26T11:36:06.127Z,20.40
2022-10-26T11:38:57.519Z,20.60
2022-10-26T11:41:45.885Z,20.40
2022-10-26T11:44:52.860Z,20.90
2022-10-26T11:47:34.955Z,21.50
2022-10-26T11:50:26.206Z,20.80
2022-10-26T11:53:01.384Z,19.80
2022-10-26T11:55:29.404Z,19.70
2022-10-26T11:57:58.064Z,19.40
2022-10-26T12:00:26.530Z,19.20
2022-10-26T12:03:02.683Z,19.00
2022-10-26T12:05:38.466Z,19.00
2022-10-26T12:08:32.757Z,19.00
2022-10-26T12:11:31.983Z,19.20
2022-10-26T12:14:22.262Z,19.10
2022-10-26T12:17:10.297Z,19.00
2022-10-26T12:20:01.417Z,19.10
2022-10-26T12:22:40.164Z,19.10
2022-10-26T12:25:16.330Z,19.10
2022-10-26T12:27:43.370Z,19.10
2022-10-26T12:30:19.809Z,19.10
2022-10-26T12:32:49.934Z,19.00
2022-10-26T12:35:45.501Z,19.00
2022-10-26T12:38:25.209Z,19.00
2022-10-26T12:41:09.926Z,19.20
2022-10-26T12:43:41.600Z,19.40
2022-10-26T12:46:15.309Z,19.50
2022-10-26T12:48:50.733Z,19.50
2022-10-26T12:51:23.177Z,19.60
2022-10-26T12:54:02.431Z,19.80
2022-10-26T12:56:51.272Z,19.90
2022-10-26T12:59:41.380Z,20.20
2022-10-26T13:02:29.466Z,20.30
2022-10-26T13:05:40.656Z,20.90
2022-10-26T13:08:13.286Z,21.80
2022-10-26T13:11:05.014Z,22.50
2022-10-26T13:13:34.316Z,22.90
2022-10-26T13:16:02.982Z,23.00
2022-10-26T13:18:30.735Z,22.50
2022-10-26T13:21:13.786Z,22.00
2022-10-26T13:23:58.544Z,21.90
2022-10-26T13:26:28.835Z,21.80
2022-10-26T13:29:03.193Z,21.60
2022-10-26T13:31:33.230Z,21.60
2022-10-26T13:34:16.185Z,21.40
2022-10-26T13:36:49.982Z,20.90
2022-10-26T13:39:29.451Z,20.90
2022-10-26T13:41:58.713Z,20.50
2022-10-26T13:44:42.585Z,20.20
2022-10-26T13:47:50.118Z,20.00
2022-10-26T13:50:23.635Z,20.30
2022-10-26T13:52:55.363Z,20.10
2022-10-26T13:55:34.226Z,20.10
2022-10-26T13:58:19.412Z,20.30
2022-10-26T14:01:13.723Z,20.40
2022-10-26T14:03:42.212Z,20.60
2022-10-26T14:06:36.949Z,20.60
2022-10-26T14:09:12.923Z,20.70
2022-10-26T14:11:58.317Z,20.70
2022-10-26T14:14:38.875Z,20.70
2022-10-26T14:17:06.205Z,20.60
2022-10-26T14:19:40.244Z,20.70
2022-10-26T14:22:07.931Z,20.70
2022-10-26T14:24:47.356Z,20.80
2022-10-26T14:27:21.579Z,20.70
2022-10-26T14:30:16.703Z,20.70
2022-10-26T14:32:37.117Z,20.50
2022-10-26T14:35:04.475Z,20.30
2022-10-26T14:37:45.081Z,20.20
2022-10-26T14:40:20.198Z,19.80
2022-10-26T14:42:59.963Z,19.50
2022-10-26T14:45:48.141Z,19.20
2022-10-26T14:48:36.442Z,19.20
2022-10-26T14:51:15.919Z,19.20
2022-10-26T14:53:53.193Z,19.00
2022-10-26T14:56:37.386Z,18.80
2022-10-26T14:59:29.343Z,18.80
2022-10-26T15:02:19.863Z,18.60
2022-10-26T15:05:04.795Z,18.60
2022-10-26T15:07:39.829Z,18.60
2022-10-26T15:10:36.243Z,18.50
2022-10-26T15:13:19.244Z,18.40
2022-10-26T15:15:49.886Z,18.40
2022-10-26T15:18:27.050Z,18.30
2022-10-26T15:20:57.030Z,18.20
2022-10-26T15:23:26.290Z,18.10
2022-10-26T15:26:01.771Z,18.10
2022-10-26T15:28:39.062Z,18.10
2022-10-26T15:31:12.018Z,18.00
2022-10-26T15:33:53.571Z,18.00
2022-10-26T15:36:25.286Z,17.90
2022-10-26T15:38:52.671Z,17.80
2022-10-26T15:41:32.691Z,17.70
2022-10-26T15:44:05.969Z,17.50
2022-10-26T15:46:36.094Z,17.40
2022-10-26T15:49:08.501Z,17.30
2022-10-26T15:51:35.658Z,17.20
2022-10-26T15:54:04.782Z,17.10
2022-10-26T15:56:32.459Z,17.00
2022-10-26T15:58:59.594Z,16.90
2022-10-26T16:01:29.450Z,16.70
2022-10-26T16:03:56.855Z,16.60
2022-10-26T16:06:30.585Z,16.50
2022-10-26T16:09:01.623Z,16.40
2022-10-26T16:11:30.008Z,16.20
2022-10-26T16:13:59.705Z,16.20
2022-10-26T16:16:29.903Z,16.30
2022-10-26T16:19:18.395Z,16.40
2022-10-26T16:21:44.725Z,16.50
2022-10-26T16:24:12.502Z,16.60
2022-10-26T16:26:39.494Z,16.60
2022-10-26T16:29:06.575Z,16.50
2022-10-26T16:31:33.603Z,16.40
2022-10-26T16:34:03.291Z,16.40
2022-10-26T16:36:34.831Z,16.30
2022-10-26T16:41:34.806Z,16.10
2022-10-26T16:44:01.854Z,16.00
2022-10-26T16:46:28.907Z,15.80
2022-10-26T16:48:56.108Z,15.70
2022-10-26T16:51:26.576Z,15.60
2022-10-26T16:53:56.110Z,15.40
2022-10-26T16:56:26.523Z,15.20
2022-10-26T16:58:54.329Z,15.00
2022-10-26T17:01:22.297Z,14.70
2022-10-26T17:03:52.265Z,14.60
2022-10-26T17:06:19.763Z,14.50
2022-10-26T17:08:47.010Z,14.40
2022-10-26T17:11:20.473Z,14.30
2022-10-26T17:13:48.958Z,14.20
2022-10-26T17:16:19.678Z,14.10
2022-10-26T17:18:47.567Z,14.00
2022-10-26T17:21:17.677Z,13.90
2022-10-26T17:23:45.259Z,13.90
2022-10-26T17:26:14.490Z,13.80
2022-10-26T17:28:41.713Z,13.70
2022-10-26T17:31:15.948Z,13.70
2022-10-26T17:33:44.708Z,13.60
2022-10-26T17:36:16.067Z,13.60
2022-10-26T17:38:43.999Z,13.50
2022-10-26T17:41:14.814Z,13.50
2022-10-26T17:43:43.780Z,13.50
2022-10-26T17:46:14.762Z,13.50
2022-10-26T17:48:42.506Z,13.50
2022-10-26T17:51:18.624Z,13.50
2022-10-26T17:53:50.720Z,13.50
2022-10-26T17:56:26.985Z,13.50
2022-10-26T17:59:00.480Z,13.50
2022-10-26T18:01:29.264Z,13.40
2022-10-26T18:03:56.454Z,13.40
2022-10-26T18:06:23.740Z,13.30
2022-10-26T18:08:50.867Z,13.50
2022-10-26T18:11:26.549Z,13.30
2022-10-26T18:13:55.650Z,13.30
2022-10-26T18:16:25.455Z,13.20
2022-10-26T18:19:00.825Z,13.20
2022-10-26T18:21:34.298Z,13.20
2022-10-26T18:24:03.526Z,13.20
2022-10-26T18:26:31.526Z,13.20
2022-10-26T18:29:00.531Z,13.10
2022-10-26T18:31:30.061Z,13.00
2022-10-26T18:33:59.359Z,13.00
2022-10-26T18:36:27.806Z,13.00
2022-10-26T18:38:55.138Z,12.90
2022-10-26T18:41:24.676Z,13.00
2022-10-26T18:43:55.061Z,12.90
2022-10-26T18:46:27.913Z,12.90
2022-10-26T18:48:56.421Z,12.90
2022-10-26T18:51:29.079Z,12.90
2022-10-26T18:53:57.874Z,12.90
2022-10-26T18:56:25.688Z,12.90
2022-10-26T18:58:58.616Z,12.80
2022-10-26T19:01:39.901Z,12.70
2022-10-26T19:04:10.171Z,12.70
2022-10-26T19:06:47.657Z,12.80
2022-10-26T19:09:18.916Z,12.80
2022-10-26T19:11:46.024Z,12.80
2022-10-26T19:14:13.812Z,12.80
2022-10-26T19:16:45.962Z,12.80
2022-10-26T19:19:18.452Z,12.80
2022-10-26T19:21:50.499Z,12.80
2022-10-26T19:24:21.663Z,12.70
2022-10-26T19:26:50.842Z,12.70
2022-10-26T19:29:19.388Z,12.60
2022-10-26T19:31:52.412Z,12.50
2022-10-26T19:34:21.329Z,12.40
2022-10-26T19:36:48.531Z,12.20
2022-10-26T19:39:18.338Z,12.10
2022-10-26T19:41:48.864Z,12.00
2022-10-26T19:44:17.949Z,11.90
2022-10-26T19:46:46.872Z,11.90
2022-10-26T19:49:17.561Z,11.90
2022-10-26T19:51:45.207Z,11.80
2022-10-26T19:54:12.260Z,11.80
2022-10-26T19:56:39.515Z,11.80
2022-10-26T19:59:08.161Z,11.80
2022-10-26T20:01:38.541Z,11.90
2022-10-26T20:04:06.383Z,11.90
2022-10-26T20:06:33.676Z,11.90
2022-10-26T20:09:02.358Z,12.00
2022-10-26T20:11:32.327Z,11.90
2022-10-26T20:13:59.809Z,11.80
2022-10-26T20:16:27.094Z,11.80
2022-10-26T20:18:55.209Z,11.70
2022-10-26T20:21:22.250Z,11.60
2022-10-26T20:23:50.012Z,11.50
2022-10-26T20:26:20.106Z,11.40
2022-10-26T20:28:51.086Z,11.30
2022-10-26T20:31:18.654Z,11.20
2022-10-26T20:33:45.714Z,11.20
2022-10-26T20:36:12.812Z,11.20
2022-10-26T20:38:40.752Z,11.20
2022-10-26T20:41:14.467Z,11.30
2022-10-26T20:43:42.467Z,11.30
2022-10-26T20:46:26.785Z,11.30
2022-10-26T20:48:55.113Z,11.20
2022-10-26T20:51:39.919Z,11.10
2022-10-26T20:54:43.499Z,11.10
2022-10-26T20:57:19.534Z,11.10
2022-10-26T20:59:53.064Z,11.10
2022-10-26T21:02:22.326Z,11.20
2022-10-26T21:04:49.384Z,11.20
2022-10-26T21:07:16.353Z,11.20
2022-10-26T21:09:43.470Z,11.20
2022-10-26T21:12:10.508Z,11.20
2022-10-26T21:14:40.889Z,11.20
2022-10-26T21:17:08.784Z,11.10
2022-10-26T21:19:36.122Z,11.10
2022-10-26T21:22:03.495Z,11.00
2022-10-26T21:24:31.079Z,10.90
2022-10-26T21:26:58.181Z,10.90
2022-10-26T21:29:25.287Z,10.80
2022-10-26T21:31:52.350Z,10.80
2022-10-26T21:34:19.353Z,10.80
2022-10-26T21:36:46.410Z,10.80
2022-10-26T21:39:13.627Z,10.80
2022-10-26T21:41:40.854Z,10.70
2022-10-26T21:44:23.163Z,10.70
2022-10-26T21:46:52.963Z,10.60
2022-10-26T21:49:19.935Z,10.60
2022-10-26T21:51:46.931Z,10.60
2022-10-26T21:54:13.965Z,10.60
2022-10-26T21:56:40.986Z,10.50
2022-10-26T21:59:08.022Z,10.50
2022-10-26T22:01:35.160Z,10.50
2022-10-26T22:04:02.276Z,10.40
2022-10-26T22:06:29.284Z,10.40
2022-10-26T22:08:56.322Z,10.50
2022-10-26T22:11:25.073Z,10.50
2022-10-26T22:13:52.981Z,10.50
2022-10-26T22:16:26.858Z,10.40
2022-10-26T22:18:57.631Z,10.40
2022-10-26T22:21:27.310Z,10.30
2022-10-26T22:23:57.212Z,10.40
2022-10-26T22:26:25.520Z,10.30
2022-10-26T22:28:55.910Z,10.20
2022-10-26T22:34:07.570Z,10.10
2022-10-26T22:36:35.869Z,10.20
2022-10-26T22:39:04.098Z,10.10
2022-10-26T22:41:31.299Z,10.10
2022-10-26T22:43:58.297Z,10.00
2022-10-26T22:46:27.608Z,10.00
2022-10-26T22:48:56.927Z,10.00
2022-10-26T22:51:28.492Z,10.00
2022-10-26T22:53:57.814Z,10.00
2022-10-26T22:58:58.505Z,10.00
2022-10-26T23:01:31.320Z,9.90
2022-10-26T23:03:59.394Z,9.90
2022-10-26T23:06:29.493Z,9.90
2022-10-26T23:08:56.802Z,9.80
2022-10-26T23:11:27.094Z,9.80
2022-10-26T23:13:59.403Z,9.90
2022-10-26T23:16:27.384Z,9.90
2022-10-26T23:18:55.015Z,9.90
2022-10-26T23:23:57.436Z,9.90
2022-10-26T23:26:24.671Z,9.90
2022-10-26T23:28:51.723Z,9.90
2022-10-26T23:31:25.837Z,9.80
2022-10-26T23:33:55.571Z,9.70
2022-10-26T23:36:23.807Z,9.60
2022-10-26T23:38:50.967Z,9.60
2022-10-26T23:41:18.047Z,9.60
2022-10-26T23:43:45.077Z,9.50
2022-10-26T23:46:12.168Z,9.50
2022-10-26T23:48:39.287Z,9.40
2022-10-26T23:51:06.390Z,9.30
2022-10-26T23:53:33.556Z,9.20
2022-10-26T23:56:00.667Z,9.10
2022-10-26T23:58:27.696Z,9.10
